sensor_id;sensor_type;location;lat;lon;timestamp;temperature;humidity
23377;DHT22;14353;46.070;13.222;2023-01-15T00:01:02;18.60;45.90
23377;DHT22;14353;46.070;13.222;2023-01-15T00:03:28;18.70;45.90
23377;DHT22;14353;46.070;13.222;2023-01-15T00:05:54;18.60;45.90
23377;DHT22;14353;46.070;13.222;2023-01-15T00:08:20;18.70;46.00
23377;DHT22;14353;46.070;13.222;2023-01-15T00:10:46;18.60;45.90
23377;DHT22;14353;46.070;13.222;2023-01-15T00:13:12;18.60;45.90
23377;DHT22;14353;46.070;13.222;2023-01-15T00:15:38;18.60;45.90
23377;DHT22;14353;46.070;13.222;2023-01-15T00:18:04;18.60;45.90
23377;DHT22;14353;46.070;13.222;2023-01-15T00:20:29;18.60;46.00
23377;DHT22;14353;46.070;13.222;2023-01-15T00:22:55;18.60;46.00
23377;DHT22;14353;46.070;13.222;2023-01-15T00:25:21;18.60;46.00
23377;DHT22;14353;46.070;13.222;2023-01-15T00:28:05;18.60;46.00
23377;DHT22;14353;46.070;13.222;2023-01-15T00:30:30;18.60;45.90
23377;DHT22;14353;46.070;13.222;2023-01-15T00:32:57;18.60;45.90
23377;DHT22;14353;46.070;13.222;2023-01-15T00:35:23;18.60;46.00
23377;DHT22;14353;46.070;13.222;2023-01-15T00:37:50;18.60;46.00
23377;DHT22;14353;46.070;13.222;2023-01-15T00:40:17;18.60;46.00
23377;DHT22;14353;46.070;13.222;2023-01-15T00:42:43;18.60;46.00
23377;DHT22;14353;46.070;13.222;2023-01-15T00:45:10;18.60;46.00
23377;DHT22;14353;46.070;13.222;2023-01-15T00:47:41;18.50;46.00
23377;DHT22;14353;46.070;13.222;2023-01-15T00:50:09;18.50;45.90
23377;DHT22;14353;46.070;13.222;2023-01-15T00:52:35;18.50;46.00
23377;DHT22;14353;46.070;13.222;2023-01-15T00:55:01;18.60;46.00
23377;DHT22;14353;46.070;13.222;2023-01-15T00:57:27;18.60;46.00
23377;DHT22;14353;46.070;13.222;2023-01-15T00:59:53;18.60;46.10
23377;DHT22;14353;46.070;13.222;2023-01-15T01:02:19;18.60;46.10
23377;DHT22;14353;46.070;13.222;2023-01-15T01:04:45;18.50;46.00
23377;DHT22;14353;46.070;13.222;2023-01-15T01:07:11;18.50;46.00
23377;DHT22;14353;46.070;13.222;2023-01-15T01:09:37;18.50;46.00
23377;DHT22;14353;46.070;13.222;2023-01-15T01:12:03;18.50;46.00
23377;DHT22;14353;46.070;13.222;2023-01-15T01:14:29;18.50;46.00
23377;DHT22;14353;46.070;13.222;2023-01-15T01:16:54;18.50;46.00
23377;DHT22;14353;46.070;13.222;2023-01-15T01:19:22;18.50;46.00
23377;DHT22;14353;46.070;13.222;2023-01-15T01:21:50;18.50;46.00
23377;DHT22;14353;46.070;13.222;2023-01-15T01:24:19;18.50;46.00
23377;DHT22;14353;46.070;13.222;2023-01-15T01:26:45;18.50;46.00
23377;DHT22;14353;46.070;13.222;2023-01-15T01:29:31;18.50;46.00
23377;DHT22;14353;46.070;13.222;2023-01-15T01:31:57;18.50;46.00
23377;DHT22;14353;46.070;13.222;2023-01-15T01:34:23;18.50;46.00
23377;DHT22;14353;46.070;13.222;2023-01-15T01:36:48;18.50;46.00
23377;DHT22;14353;46.070;13.222;2023-01-15T01:39:17;18.50;46.10
23377;DHT22;14353;46.070;13.222;2023-01-15T01:41:44;18.50;46.10
23377;DHT22;14353;46.070;13.222;2023-01-15T01:47:04;18.40;46.00
23377;DHT22;14353;46.070;13.222;2023-01-15T01:49:31;18.40;46.00
23377;DHT22;14353;46.070;13.222;2023-01-15T01:52:07;18.40;46.00
23377;DHT22;14353;46.070;13.222;2023-01-15T01:54:34;18.40;46.10
23377;DHT22;14353;46.070;13.222;2023-01-15T01:57:01;18.40;46.00
23377;DHT22;14353;46.070;13.222;2023-01-15T01:59:28;18.40;46.10
23377;DHT22;14353;46.070;13.222;2023-01-15T02:01:54;18.40;46.00
23377;DHT22;14353;46.070;13.222;2023-01-15T02:04:21;18.40;46.00
23377;DHT22;14353;46.070;13.222;2023-01-15T02:06:50;18.40;46.10
23377;DHT22;14353;46.070;13.222;2023-01-15T02:09:16;18.40;46.10
23377;DHT22;14353;46.070;13.222;2023-01-15T02:11:42;18.40;46.10
23377;DHT22;14353;46.070;13.222;2023-01-15T02:17:07;18.40;46.10
23377;DHT22;14353;46.070;13.222;2023-01-15T02:20:15;18.40;46.10
23377;DHT22;14353;46.070;13.222;2023-01-15T02:28:35;18.40;46.10
23377;DHT22;14353;46.070;13.222;2023-01-15T02:34:28;18.40;46.10
23377;DHT22;14353;46.070;13.222;2023-01-15T02:36:51;18.40;46.10
23377;DHT22;14353;46.070;13.222;2023-01-15T02:39:19;18.30;46.00
23377;DHT22;14353;46.070;13.222;2023-01-15T02:41:48;18.40;46.10
23377;DHT22;14353;46.070;13.222;2023-01-15T02:44:18;18.40;46.10
23377;DHT22;14353;46.070;13.222;2023-01-15T02:46:45;18.30;46.00
23377;DHT22;14353;46.070;13.222;2023-01-15T02:49:14;18.40;46.10
23377;DHT22;14353;46.070;13.222;2023-01-15T02:54:20;18.30;46.00
23377;DHT22;14353;46.070;13.222;2023-01-15T02:56:49;18.30;46.10
23377;DHT22;14353;46.070;13.222;2023-01-15T02:59:24;18.30;46.10
23377;DHT22;14353;46.070;13.222;2023-01-15T03:02:02;18.30;46.00
23377;DHT22;14353;46.070;13.222;2023-01-15T03:09:38;18.30;46.00
23377;DHT22;14353;46.070;13.222;2023-01-15T03:12:18;18.30;46.10
23377;DHT22;14353;46.070;13.222;2023-01-15T03:15:10;18.30;46.00
23377;DHT22;14353;46.070;13.222;2023-01-15T03:18:08;18.30;46.00
23377;DHT22;14353;46.070;13.222;2023-01-15T03:20:38;18.30;46.00
23377;DHT22;14353;46.070;13.222;2023-01-15T03:23:10;18.30;46.10
23377;DHT22;14353;46.070;13.222;2023-01-15T03:25:46;18.30;46.00
23377;DHT22;14353;46.070;13.222;2023-01-15T03:28:13;18.30;46.10
23377;DHT22;14353;46.070;13.222;2023-01-15T03:30:39;18.30;46.10
23377;DHT22;14353;46.070;13.222;2023-01-15T03:33:06;18.30;46.10
23377;DHT22;14353;46.070;13.222;2023-01-15T03:35:46;18.30;46.70
23377;DHT22;14353;46.070;13.222;2023-01-15T03:38:15;18.30;46.10
23377;DHT22;14353;46.070;13.222;2023-01-15T03:40:52;18.20;46.00
23377;DHT22;14353;46.070;13.222;2023-01-15T03:43:20;18.20;46.00
23377;DHT22;14353;46.070;13.222;2023-01-15T03:54:56;18.20;46.10
23377;DHT22;14353;46.070;13.222;2023-01-15T03:57:35;18.20;46.10
23377;DHT22;14353;46.070;13.222;2023-01-15T04:00:08;18.20;46.10
23377;DHT22;14353;46.070;13.222;2023-01-15T04:02:35;18.20;46.10
23377;DHT22;14353;46.070;13.222;2023-01-15T04:05:03;18.20;46.00
23377;DHT22;14353;46.070;13.222;2023-01-15T04:07:36;18.20;46.10
23377;DHT22;14353;46.070;13.222;2023-01-15T04:10:02;18.20;46.00
23377;DHT22;14353;46.070;13.222;2023-01-15T04:12:31;18.20;46.00
23377;DHT22;14353;46.070;13.222;2023-01-15T04:14:58;18.20;46.10
23377;DHT22;14353;46.070;13.222;2023-01-15T04:17:24;18.20;46.10
23377;DHT22;14353;46.070;13.222;2023-01-15T04:19:49;18.20;46.10
23377;DHT22;14353;46.070;13.222;2023-01-15T04:22:15;18.20;46.10
23377;DHT22;14353;46.070;13.222;2023-01-15T04:24:41;18.20;46.10
23377;DHT22;14353;46.070;13.222;2023-01-15T04:27:07;18.20;46.10
23377;DHT22;14353;46.070;13.222;2023-01-15T04:29:33;18.20;46.10
23377;DHT22;14353;46.070;13.222;2023-01-15T04:31:58;18.20;46.10
23377;DHT22;14353;46.070;13.222;2023-01-15T04:34:28;18.20;46.10
23377;DHT22;14353;46.070;13.222;2023-01-15T04:36:54;18.20;46.10
23377;DHT22;14353;46.070;13.222;2023-01-15T04:39:21;18.20;46.10
23377;DHT22;14353;46.070;13.222;2023-01-15T04:41:46;18.20;46.10
23377;DHT22;14353;46.070;13.222;2023-01-15T04:44:32;18.20;46.10
23377;DHT22;14353;46.070;13.222;2023-01-15T04:46:58;18.20;46.10
23377;DHT22;14353;46.070;13.222;2023-01-15T04:49:25;18.20;46.10
23377;DHT22;14353;46.070;13.222;2023-01-15T04:51:51;18.20;46.10
23377;DHT22;14353;46.070;13.222;2023-01-15T04:54:17;18.10;46.10
23377;DHT22;14353;46.070;13.222;2023-01-15T04:56:49;18.20;46.10
23377;DHT22;14353;46.070;13.222;2023-01-15T04:59:18;18.10;46.00
23377;DHT22;14353;46.070;13.222;2023-01-15T05:01:43;18.10;46.10
23377;DHT22;14353;46.070;13.222;2023-01-15T05:04:09;18.10;46.10
23377;DHT22;14353;46.070;13.222;2023-01-15T05:06:35;18.10;46.10
23377;DHT22;14353;46.070;13.222;2023-01-15T05:09:02;18.10;46.00
23377;DHT22;14353;46.070;13.222;2023-01-15T05:11:28;18.10;46.10
23377;DHT22;14353;46.070;13.222;2023-01-15T05:13:54;18.10;46.10
23377;DHT22;14353;46.070;13.222;2023-01-15T05:16:23;18.10;46.10
23377;DHT22;14353;46.070;13.222;2023-01-15T05:18:50;18.10;46.10
23377;DHT22;14353;46.070;13.222;2023-01-15T05:21:21;18.10;46.10
23377;DHT22;14353;46.070;13.222;2023-01-15T05:23:49;18.10;46.10
23377;DHT22;14353;46.070;13.222;2023-01-15T05:26:16;18.10;46.10
23377;DHT22;14353;46.070;13.222;2023-01-15T05:28:42;18.10;46.10
23377;DHT22;14353;46.070;13.222;2023-01-15T05:31:13;18.10;46.10
23377;DHT22;14353;46.070;13.222;2023-01-15T05:33:39;18.10;46.10
23377;DHT22;14353;46.070;13.222;2023-01-15T05:36:11;18.10;46.10
23377;DHT22;14353;46.070;13.222;2023-01-15T05:38:37;18.10;46.10
23377;DHT22;14353;46.070;13.222;2023-01-15T05:41:08;18.10;46.10
23377;DHT22;14353;46.070;13.222;2023-01-15T05:43:54;18.10;46.10
23377;DHT22;14353;46.070;13.222;2023-01-15T05:46:20;18.10;46.10
23377;DHT22;14353;46.070;13.222;2023-01-15T05:48:46;18.00;46.10
23377;DHT22;14353;46.070;13.222;2023-01-15T05:51:12;18.00;46.10
23377;DHT22;14353;46.070;13.222;2023-01-15T05:53:37;18.00;46.10
23377;DHT22;14353;46.070;13.222;2023-01-15T05:56:04;18.00;46.10
23377;DHT22;14353;46.070;13.222;2023-01-15T05:58:30;18.00;46.00
23377;DHT22;14353;46.070;13.222;2023-01-15T06:00:56;18.00;46.10
23377;DHT22;14353;46.070;13.222;2023-01-15T06:03:23;18.10;46.10
23377;DHT22;14353;46.070;13.222;2023-01-15T06:05:53;18.00;46.10
23377;DHT22;14353;46.070;13.222;2023-01-15T06:08:20;18.00;46.10
23377;DHT22;14353;46.070;13.222;2023-01-15T06:10:47;18.10;46.10
23377;DHT22;14353;46.070;13.222;2023-01-15T06:13:14;18.00;46.10
23377;DHT22;14353;46.070;13.222;2023-01-15T06:15:41;18.00;46.10
23377;DHT22;14353;46.070;13.222;2023-01-15T06:18:07;18.00;46.10
23377;DHT22;14353;46.070;13.222;2023-01-15T06:20:39;18.00;46.10
23377;DHT22;14353;46.070;13.222;2023-01-15T06:23:06;18.00;46.10
23377;DHT22;14353;46.070;13.222;2023-01-15T06:25:32;18.00;46.10
23377;DHT22;14353;46.070;13.222;2023-01-15T06:28:06;18.00;46.10
23377;DHT22;14353;46.070;13.222;2023-01-15T06:30:32;18.00;46.10
23377;DHT22;14353;46.070;13.222;2023-01-15T06:32:58;18.00;46.10
23377;DHT22;14353;46.070;13.222;2023-01-15T06:35:24;18.00;46.10
23377;DHT22;14353;46.070;13.222;2023-01-15T06:37:49;18.00;46.10
23377;DHT22;14353;46.070;13.222;2023-01-15T06:40:15;18.00;46.10
23377;DHT22;14353;46.070;13.222;2023-01-15T06:42:44;18.00;46.10
23377;DHT22;14353;46.070;13.222;2023-01-15T06:45:36;18.00;46.10
23377;DHT22;14353;46.070;13.222;2023-01-15T06:48:22;18.00;46.10
23377;DHT22;14353;46.070;13.222;2023-01-15T06:50:47;18.00;46.10
23377;DHT22;14353;46.070;13.222;2023-01-15T06:53:13;18.00;46.10
23377;DHT22;14353;46.070;13.222;2023-01-15T06:55:39;18.00;46.10
23377;DHT22;14353;46.070;13.222;2023-01-15T06:58:04;18.00;46.10
23377;DHT22;14353;46.070;13.222;2023-01-15T07:00:30;17.90;46.00
23377;DHT22;14353;46.070;13.222;2023-01-15T07:02:59;18.00;46.10
23377;DHT22;14353;46.070;13.222;2023-01-15T07:05:24;18.00;46.10
23377;DHT22;14353;46.070;13.222;2023-01-15T07:07:50;17.90;46.10
23377;DHT22;14353;46.070;13.222;2023-01-15T07:10:16;17.90;46.10
23377;DHT22;14353;46.070;13.222;2023-01-15T07:12:42;18.00;46.10
23377;DHT22;14353;46.070;13.222;2023-01-15T07:15:08;17.90;46.00
23377;DHT22;14353;46.070;13.222;2023-01-15T07:17:34;17.90;46.00
23377;DHT22;14353;46.070;13.222;2023-01-15T07:20:00;17.90;46.00
23377;DHT22;14353;46.070;13.222;2023-01-15T07:22:25;17.90;46.00
23377;DHT22;14353;46.070;13.222;2023-01-15T07:24:51;17.90;46.00
23377;DHT22;14353;46.070;13.222;2023-01-15T07:27:17;17.90;46.10
23377;DHT22;14353;46.070;13.222;2023-01-15T07:29:43;17.90;46.10
23377;DHT22;14353;46.070;13.222;2023-01-15T07:32:09;17.90;46.10
23377;DHT22;14353;46.070;13.222;2023-01-15T07:34:35;17.90;46.10
23377;DHT22;14353;46.070;13.222;2023-01-15T07:37:01;17.90;46.00
23377;DHT22;14353;46.070;13.222;2023-01-15T07:39:26;17.90;46.10
23377;DHT22;14353;46.070;13.222;2023-01-15T07:41:53;17.90;46.10
23377;DHT22;14353;46.070;13.222;2023-01-15T07:44:37;17.90;46.10
23377;DHT22;14353;46.070;13.222;2023-01-15T07:47:22;17.90;46.10
23377;DHT22;14353;46.070;13.222;2023-01-15T07:50:09;17.90;46.10
23377;DHT22;14353;46.070;13.222;2023-01-15T07:52:38;17.90;46.10
23377;DHT22;14353;46.070;13.222;2023-01-15T07:55:04;17.90;46.10
23377;DHT22;14353;46.070;13.222;2023-01-15T07:57:33;17.90;46.10
23377;DHT22;14353;46.070;13.222;2023-01-15T07:59:58;17.90;46.10
23377;DHT22;14353;46.070;13.222;2023-01-15T08:02:25;17.90;46.10
23377;DHT22;14353;46.070;13.222;2023-01-15T08:04:51;17.90;46.10
23377;DHT22;14353;46.070;13.222;2023-01-15T08:07:17;17.90;46.10
23377;DHT22;14353;46.070;13.222;2023-01-15T08:09:43;17.90;46.10
23377;DHT22;14353;46.070;13.222;2023-01-15T08:12:09;17.90;46.10
23377;DHT22;14353;46.070;13.222;2023-01-15T08:14:54;17.90;46.10
23377;DHT22;14353;46.070;13.222;2023-01-15T08:17:39;17.90;46.10
23377;DHT22;14353;46.070;13.222;2023-01-15T08:20:07;17.90;46.10
23377;DHT22;14353;46.070;13.222;2023-01-15T08:22:34;17.90;46.00
23377;DHT22;14353;46.070;13.222;2023-01-15T08:25:00;17.90;46.00
23377;DHT22;14353;46.070;13.222;2023-01-15T08:27:28;17.90;46.00
23377;DHT22;14353;46.070;13.222;2023-01-15T08:29:55;17.90;46.70
23377;DHT22;14353;46.070;13.222;2023-01-15T08:32:21;17.90;46.00
23377;DHT22;14353;46.070;13.222;2023-01-15T08:34:47;17.90;46.00
23377;DHT22;14353;46.070;13.222;2023-01-15T08:37:13;17.90;46.00
23377;DHT22;14353;46.070;13.222;2023-01-15T08:39:38;17.90;46.00
23377;DHT22;14353;46.070;13.222;2023-01-15T08:42:04;17.90;46.10
23377;DHT22;14353;46.070;13.222;2023-01-15T08:44:30;17.90;46.00
23377;DHT22;14353;46.070;13.222;2023-01-15T08:46:55;17.90;46.00
23377;DHT22;14353;46.070;13.222;2023-01-15T08:49:21;17.90;46.10
23377;DHT22;14353;46.070;13.222;2023-01-15T08:51:47;17.90;46.10
23377;DHT22;14353;46.070;13.222;2023-01-15T08:54:17;17.90;46.00
23377;DHT22;14353;46.070;13.222;2023-01-15T08:56:44;17.90;46.00
23377;DHT22;14353;46.070;13.222;2023-01-15T08:59:10;17.90;46.10
23377;DHT22;14353;46.070;13.222;2023-01-15T09:01:36;17.90;46.00
23377;DHT22;14353;46.070;13.222;2023-01-15T09:04:01;17.90;46.00
23377;DHT22;14353;46.070;13.222;2023-01-15T09:06:28;17.90;46.00
23377;DHT22;14353;46.070;13.222;2023-01-15T09:08:54;17.90;46.00
23377;DHT22;14353;46.070;13.222;2023-01-15T09:11:19;17.90;46.00
23377;DHT22;14353;46.070;13.222;2023-01-15T09:13:45;17.90;46.10
23377;DHT22;14353;46.070;13.222;2023-01-15T09:16:12;17.90;46.00
23377;DHT22;14353;46.070;13.222;2023-01-15T09:18:38;17.90;46.00
23377;DHT22;14353;46.070;13.222;2023-01-15T09:21:05;17.90;46.00
23377;DHT22;14353;46.070;13.222;2023-01-15T09:23:31;17.90;46.00
23377;DHT22;14353;46.070;13.222;2023-01-15T09:26:01;17.90;46.00
23377;DHT22;14353;46.070;13.222;2023-01-15T09:28:28;17.90;46.00
23377;DHT22;14353;46.070;13.222;2023-01-15T09:30:54;17.90;46.00
23377;DHT22;14353;46.070;13.222;2023-01-15T09:33:19;17.90;46.10
23377;DHT22;14353;46.070;13.222;2023-01-15T09:35:45;17.90;46.00
23377;DHT22;14353;46.070;13.222;2023-01-15T09:38:13;17.90;46.00
23377;DHT22;14353;46.070;13.222;2023-01-15T09:40:58;17.90;46.00
23377;DHT22;14353;46.070;13.222;2023-01-15T09:46:00;17.90;46.10
23377;DHT22;14353;46.070;13.222;2023-01-15T09:48:36;17.90;46.00
23377;DHT22;14353;46.070;13.222;2023-01-15T09:56:26;17.80;46.00
23377;DHT22;14353;46.070;13.222;2023-01-15T09:58:54;17.80;45.90
23377;DHT22;14353;46.070;13.222;2023-01-15T10:01:26;17.90;46.10
23377;DHT22;14353;46.070;13.222;2023-01-15T10:04:03;17.80;45.90
23377;DHT22;14353;46.070;13.222;2023-01-15T10:06:41;17.80;46.00
23377;DHT22;14353;46.070;13.222;2023-01-15T10:09:20;17.80;46.00
23377;DHT22;14353;46.070;13.222;2023-01-15T10:11:51;17.80;46.00
23377;DHT22;14353;46.070;13.222;2023-01-15T10:15:04;17.80;46.00
23377;DHT22;14353;46.070;13.222;2023-01-15T10:17:38;17.80;46.00
23377;DHT22;14353;46.070;13.222;2023-01-15T10:25:47;17.80;46.00
23377;DHT22;14353;46.070;13.222;2023-01-15T10:28:39;17.80;46.00
23377;DHT22;14353;46.070;13.222;2023-01-15T10:31:18;17.80;46.10
23377;DHT22;14353;46.070;13.222;2023-01-15T10:39:13;17.80;46.00
23377;DHT22;14353;46.070;13.222;2023-01-15T10:44:41;17.80;46.00
23377;DHT22;14353;46.070;13.222;2023-01-15T10:47:13;17.80;46.00
23377;DHT22;14353;46.070;13.222;2023-01-15T10:49:40;17.80;46.10
23377;DHT22;14353;46.070;13.222;2023-01-15T10:52:26;17.80;46.10
23377;DHT22;14353;46.070;13.222;2023-01-15T10:55:17;17.80;46.10
23377;DHT22;14353;46.070;13.222;2023-01-15T10:58:02;17.80;46.10
23377;DHT22;14353;46.070;13.222;2023-01-15T11:00:31;17.80;46.10
23377;DHT22;14353;46.070;13.222;2023-01-15T11:03:01;17.80;46.10
23377;DHT22;14353;46.070;13.222;2023-01-15T11:05:40;17.80;46.10
23377;DHT22;14353;46.070;13.222;2023-01-15T11:08:09;17.80;46.10
23377;DHT22;14353;46.070;13.222;2023-01-15T11:10:38;17.80;46.10
23377;DHT22;14353;46.070;13.222;2023-01-15T11:16:02;17.80;46.10
23377;DHT22;14353;46.070;13.222;2023-01-15T11:18:46;17.80;46.10
23377;DHT22;14353;46.070;13.222;2023-01-15T11:21:31;17.80;46.70
23377;DHT22;14353;46.070;13.222;2023-01-15T11:23:58;17.80;46.10
23377;DHT22;14353;46.070;13.222;2023-01-15T11:26:31;17.80;46.10
23377;DHT22;14353;46.070;13.222;2023-01-15T11:28:59;17.80;46.10
23377;DHT22;14353;46.070;13.222;2023-01-15T11:31:39;17.80;46.10
23377;DHT22;14353;46.070;13.222;2023-01-15T11:34:15;17.80;46.20
23377;DHT22;14353;46.070;13.222;2023-01-15T11:36:42;17.80;46.20
23377;DHT22;14353;46.070;13.222;2023-01-15T11:39:40;17.80;46.20
23377;DHT22;14353;46.070;13.222;2023-01-15T11:42:16;17.80;46.20
23377;DHT22;14353;46.070;13.222;2023-01-15T11:45:01;17.80;46.20
23377;DHT22;14353;46.070;13.222;2023-01-15T11:47:55;17.80;46.20
23377;DHT22;14353;46.070;13.222;2023-01-15T11:51:09;17.80;46.20
23377;DHT22;14353;46.070;13.222;2023-01-15T11:53:49;17.80;46.20
23377;DHT22;14353;46.070;13.222;2023-01-15T11:56:19;17.80;46.20
23377;DHT22;14353;46.070;13.222;2023-01-15T11:58:54;17.80;46.20
23377;DHT22;14353;46.070;13.222;2023-01-15T12:01:28;17.70;46.20
23377;DHT22;14353;46.070;13.222;2023-01-15T12:04:00;17.80;46.20
23377;DHT22;14353;46.070;13.222;2023-01-15T12:06:26;17.80;46.50
23377;DHT22;14353;46.070;13.222;2023-01-15T12:12:05;17.80;46.20
23377;DHT22;14353;46.070;13.222;2023-01-15T12:20:47;17.80;46.20
23377;DHT22;14353;46.070;13.222;2023-01-15T12:26:34;17.70;46.20
23377;DHT22;14353;46.070;13.222;2023-01-15T12:32:07;17.70;46.20
23377;DHT22;14353;46.070;13.222;2023-01-15T12:34:56;17.70;46.20
23377;DHT22;14353;46.070;13.222;2023-01-15T12:37:30;17.80;46.20
23377;DHT22;14353;46.070;13.222;2023-01-15T12:42:33;17.70;46.20
23377;DHT22;14353;46.070;13.222;2023-01-15T12:45:24;17.70;46.20
23377;DHT22;14353;46.070;13.222;2023-01-15T12:50:45;17.70;46.30
23377;DHT22;14353;46.070;13.222;2023-01-15T13:09:39;17.70;46.30
23377;DHT22;14353;46.070;13.222;2023-01-15T13:12:18;17.70;47.00
23377;DHT22;14353;46.070;13.222;2023-01-15T13:14:44;17.70;46.30
23377;DHT22;14353;46.070;13.222;2023-01-15T13:17:21;17.70;46.30
23377;DHT22;14353;46.070;13.222;2023-01-15T13:22:25;17.70;46.30
23377;DHT22;14353;46.070;13.222;2023-01-15T13:35:47;17.70;46.40
23377;DHT22;14353;46.070;13.222;2023-01-15T13:38:46;17.70;46.40
23377;DHT22;14353;46.070;13.222;2023-01-15T13:41:25;17.70;46.50
23377;DHT22;14353;46.070;13.222;2023-01-15T13:44:21;17.60;46.40
23377;DHT22;14353;46.070;13.222;2023-01-15T13:47:19;17.70;46.50
23377;DHT22;14353;46.070;13.222;2023-01-15T13:49:55;17.70;46.50
23377;DHT22;14353;46.070;13.222;2023-01-15T13:52:30;17.60;46.40
23377;DHT22;14353;46.070;13.222;2023-01-15T13:55:00;17.60;46.50
23377;DHT22;14353;46.070;13.222;2023-01-15T14:00:30;17.70;46.50
23377;DHT22;14353;46.070;13.222;2023-01-15T14:05:56;17.70;46.50
23377;DHT22;14353;46.070;13.222;2023-01-15T14:08:26;17.60;47.10
23377;DHT22;14353;46.070;13.222;2023-01-15T14:10:52;17.60;46.50
23377;DHT22;14353;46.070;13.222;2023-01-15T14:13:40;17.60;46.50
23377;DHT22;14353;46.070;13.222;2023-01-15T14:32:50;17.60;46.60
23377;DHT22;14353;46.070;13.222;2023-01-15T14:35:19;17.60;46.60
23377;DHT22;14353;46.070;13.222;2023-01-15T14:37:50;17.60;46.60
23377;DHT22;14353;46.070;13.222;2023-01-15T14:40:27;17.60;46.60
23377;DHT22;14353;46.070;13.222;2023-01-15T14:42:55;17.60;46.60
23377;DHT22;14353;46.070;13.222;2023-01-15T14:45:35;17.60;46.60
23377;DHT22;14353;46.070;13.222;2023-01-15T14:51:09;17.60;46.80
23377;DHT22;14353;46.070;13.222;2023-01-15T14:53:43;17.60;46.70
23377;DHT22;14353;46.070;13.222;2023-01-15T15:01:56;17.60;46.70
23377;DHT22;14353;46.070;13.222;2023-01-15T15:04:39;17.60;46.70
23377;DHT22;14353;46.070;13.222;2023-01-15T15:07:22;17.60;46.70
23377;DHT22;14353;46.070;13.222;2023-01-15T15:10:05;17.60;46.70
23377;DHT22;14353;46.070;13.222;2023-01-15T15:12:43;17.60;46.70
23377;DHT22;14353;46.070;13.222;2023-01-15T15:15:16;17.50;46.70
23377;DHT22;14353;46.070;13.222;2023-01-15T15:20:32;17.60;46.70
23377;DHT22;14353;46.070;13.222;2023-01-15T15:25:58;17.60;46.70
23377;DHT22;14353;46.070;13.222;2023-01-15T15:28:26;17.60;46.80
23377;DHT22;14353;46.070;13.222;2023-01-15T15:30:52;17.60;46.80
23377;DHT22;14353;46.070;13.222;2023-01-15T15:33:30;17.50;46.80
23377;DHT22;14353;46.070;13.222;2023-01-15T15:36:00;17.50;46.80
23377;DHT22;14353;46.070;13.222;2023-01-15T15:38:26;17.50;46.80
23377;DHT22;14353;46.070;13.222;2023-01-15T15:41:00;17.50;46.80
23377;DHT22;14353;46.070;13.222;2023-01-15T15:46:26;17.50;46.80
23377;DHT22;14353;46.070;13.222;2023-01-15T15:49:10;17.50;46.80
23377;DHT22;14353;46.070;13.222;2023-01-15T15:51:56;17.50;46.80
23377;DHT22;14353;46.070;13.222;2023-01-15T15:54:23;17.50;46.90
23377;DHT22;14353;46.070;13.222;2023-01-15T15:59:31;17.50;46.80
23377;DHT22;14353;46.070;13.222;2023-01-15T16:01:59;17.50;47.10
23377;DHT22;14353;46.070;13.222;2023-01-15T16:04:26;17.50;46.90
23377;DHT22;14353;46.070;13.222;2023-01-15T16:07:12;17.50;46.80
23377;DHT22;14353;46.070;13.222;2023-01-15T16:09:38;17.50;46.90
23377;DHT22;14353;46.070;13.222;2023-01-15T16:12:08;17.50;46.90
23377;DHT22;14353;46.070;13.222;2023-01-15T16:14:37;17.50;46.90
23377;DHT22;14353;46.070;13.222;2023-01-15T16:17:03;17.50;47.00
23377;DHT22;14353;46.070;13.222;2023-01-15T16:19:29;17.50;47.00
23377;DHT22;14353;46.070;13.222;2023-01-15T16:21:55;17.50;47.00
23377;DHT22;14353;46.070;13.222;2023-01-15T16:24:30;17.50;47.00
23377;DHT22;14353;46.070;13.222;2023-01-15T16:26:59;17.50;47.00
23377;DHT22;14353;46.070;13.222;2023-01-15T16:29:27;17.50;47.00
23377;DHT22;14353;46.070;13.222;2023-01-15T16:31:54;17.50;47.00
23377;DHT22;14353;46.070;13.222;2023-01-15T16:34:32;17.50;47.00
23377;DHT22;14353;46.070;13.222;2023-01-15T16:36:59;17.50;47.00
23377;DHT22;14353;46.070;13.222;2023-01-15T16:39:29;17.50;47.00
23377;DHT22;14353;46.070;13.222;2023-01-15T16:41:57;17.50;47.00
23377;DHT22;14353;46.070;13.222;2023-01-15T16:44:25;17.50;47.00
23377;DHT22;14353;46.070;13.222;2023-01-15T16:46:56;17.40;47.00
23377;DHT22;14353;46.070;13.222;2023-01-15T16:51:59;17.50;47.00
23377;DHT22;14353;46.070;13.222;2023-01-15T17:02:14;17.40;47.10
23377;DHT22;14353;46.070;13.222;2023-01-15T17:04:42;17.40;47.10
23377;DHT22;14353;46.070;13.222;2023-01-15T17:07:28;17.40;47.10
23377;DHT22;14353;46.070;13.222;2023-01-15T17:09:57;17.40;47.10
23377;DHT22;14353;46.070;13.222;2023-01-15T17:12:30;17.40;47.10
23377;DHT22;14353;46.070;13.222;2023-01-15T17:17:46;17.40;47.10
23377;DHT22;14353;46.070;13.222;2023-01-15T17:20:13;17.40;47.10
23377;DHT22;14353;46.070;13.222;2023-01-15T17:22:44;17.40;47.20
23377;DHT22;14353;46.070;13.222;2023-01-15T17:27:56;17.40;47.20
23377;DHT22;14353;46.070;13.222;2023-01-15T17:30:24;17.40;47.20
23377;DHT22;14353;46.070;13.222;2023-01-15T17:32:56;17.40;47.20
23377;DHT22;14353;46.070;13.222;2023-01-15T17:35:25;17.40;47.20
23377;DHT22;14353;46.070;13.222;2023-01-15T17:37:51;17.40;47.20
23377;DHT22;14353;46.070;13.222;2023-01-15T17:40:17;17.40;47.20
23377;DHT22;14353;46.070;13.222;2023-01-15T17:42:43;17.40;47.20
23377;DHT22;14353;46.070;13.222;2023-01-15T17:45:20;17.40;47.20
23377;DHT22;14353;46.070;13.222;2023-01-15T17:47:46;17.40;47.20
23377;DHT22;14353;46.070;13.222;2023-01-15T17:50:12;17.40;47.20
23377;DHT22;14353;46.070;13.222;2023-01-15T17:52:39;17.40;47.30
23377;DHT22;14353;46.070;13.222;2023-01-15T17:55:05;17.40;47.20
23377;DHT22;14353;46.070;13.222;2023-01-15T17:57:50;17.40;47.30
23377;DHT22;14353;46.070;13.222;2023-01-15T18:00:34;17.40;47.20
23377;DHT22;14353;46.070;13.222;2023-01-15T18:03:21;17.40;47.30
23377;DHT22;14353;46.070;13.222;2023-01-15T18:06:09;17.30;47.20
23377;DHT22;14353;46.070;13.222;2023-01-15T18:08:36;17.40;47.30
23377;DHT22;14353;46.070;13.222;2023-01-15T18:11:02;17.40;47.30
23377;DHT22;14353;46.070;13.222;2023-01-15T18:13:28;17.30;47.30
23377;DHT22;14353;46.070;13.222;2023-01-15T18:15:53;17.40;47.30
23377;DHT22;14353;46.070;13.222;2023-01-15T18:18:19;17.40;47.30
23377;DHT22;14353;46.070;13.222;2023-01-15T18:20:45;17.40;47.40
23377;DHT22;14353;46.070;13.222;2023-01-15T18:23:10;17.40;47.40